sensor_id;sensor_type;location;lat;lon;timestamp;P1;durP1;ratioP1;P2;durP2;ratioP2
60060;SDS011;45933;51.336;12.612;2024-02-04T00:00:03;3.33;;;2.83;;
60060;SDS011;45933;51.336;12.612;2024-02-04T00:02:30;4.57;;;3.23;;
60060;SDS011;45933;51.336;12.612;2024-02-04T00:04:55;3.50;;;3.10;;
60060;SDS011;45933;51.336;12.612;2024-02-04T00:07:21;4.40;;;3.17;;
60060;SDS011;45933;51.336;12.612;2024-02-04T00:09:46;3.27;;;2.70;;
60060;SDS011;45933;51.336;12.612;2024-02-04T00:12:11;4.50;;;2.90;;
60060;SDS011;45933;51.336;12.612;2024-02-04T00:14:37;3.57;;;3.03;;
60060;SDS011;45933;51.336;12.612;2024-02-04T00:17:02;3.10;;;2.80;;
60060;SDS011;45933;51.336;12.612;2024-02-04T00:19:27;3.70;;;3.20;;
60060;SDS011;45933;51.336;12.612;2024-02-04T00:21:52;3.30;;;3.00;;
60060;SDS011;45933;51.336;12.612;2024-02-04T00:24:18;3.50;;;3.20;;
60060;SDS011;45933;51.336;12.612;2024-02-04T00:26:46;3.30;;;2.80;;
60060;SDS011;45933;51.336;12.612;2024-02-04T00:29:11;4.43;;;3.27;;
60060;SDS011;45933;51.336;12.612;2024-02-04T00:31:37;3.53;;;3.13;;
60060;SDS011;45933;51.336;12.612;2024-02-04T00:34:02;5.83;;;3.50;;
60060;SDS011;45933;51.336;12.612;2024-02-04T00:36:28;4.20;;;3.60;;
60060;SDS011;45933;51.336;12.612;2024-02-04T00:38:53;4.13;;;3.60;;
60060;SDS011;45933;51.336;12.612;2024-02-04T00:41:18;5.37;;;3.90;;
60060;SDS011;45933;51.336;12.612;2024-02-04T00:43:43;5.93;;;3.90;;
60060;SDS011;45933;51.336;12.612;2024-02-04T00:46:09;4.50;;;3.70;;
60060;SDS011;45933;51.336;12.612;2024-02-04T00:48:35;5.27;;;3.50;;
60060;SDS011;45933;51.336;12.612;2024-02-04T00:51:01;4.37;;;3.70;;
60060;SDS011;45933;51.336;12.612;2024-02-04T00:53:26;4.57;;;3.70;;
60060;SDS011;45933;51.336;12.612;2024-02-04T00:55:58;4.93;;;3.67;;
60060;SDS011;45933;51.336;12.612;2024-02-04T00:58:23;4.40;;;3.63;;
60060;SDS011;45933;51.336;12.612;2024-02-04T01:00:49;4.87;;;3.63;;
60060;SDS011;45933;51.336;12.612;2024-02-04T01:03:14;4.90;;;3.97;;
60060;SDS011;45933;51.336;12.612;2024-02-04T01:05:39;5.07;;;4.07;;
60060;SDS011;45933;51.336;12.612;2024-02-04T01:08:05;4.63;;;4.17;;
60060;SDS011;45933;51.336;12.612;2024-02-04T01:10:30;6.53;;;4.30;;
60060;SDS011;45933;51.336;12.612;2024-02-04T01:12:55;6.17;;;3.87;;
60060;SDS011;45933;51.336;12.612;2024-02-04T01:15:21;4.97;;;3.53;;
60060;SDS011;45933;51.336;12.612;2024-02-04T01:17:46;6.60;;;4.23;;
60060;SDS011;45933;51.336;12.612;2024-02-04T01:20:11;6.23;;;4.60;;
60060;SDS011;45933;51.336;12.612;2024-02-04T01:22:36;5.67;;;3.90;;
60060;SDS011;45933;51.336;12.612;2024-02-04T01:25:02;5.70;;;3.90;;
60060;SDS011;45933;51.336;12.612;2024-02-04T01:27:27;5.87;;;4.07;;
60060;SDS011;45933;51.336;12.612;2024-02-04T01:29:52;7.73;;;4.77;;
60060;SDS011;45933;51.336;12.612;2024-02-04T01:32:18;7.17;;;4.77;;
60060;SDS011;45933;51.336;12.612;2024-02-04T01:34:43;5.77;;;4.47;;
60060;SDS011;45933;51.336;12.612;2024-02-04T01:37:09;6.03;;;4.87;;
60060;SDS011;45933;51.336;12.612;2024-02-04T01:39:34;7.67;;;4.87;;
60060;SDS011;45933;51.336;12.612;2024-02-04T01:41:59;5.73;;;4.57;;
60060;SDS011;45933;51.336;12.612;2024-02-04T01:44:26;5.83;;;4.23;;
60060;SDS011;45933;51.336;12.612;2024-02-04T01:46:51;5.70;;;4.27;;
60060;SDS011;45933;51.336;12.612;2024-02-04T01:49:16;5.23;;;4.40;;
60060;SDS011;45933;51.336;12.612;2024-02-04T01:51:41;5.73;;;4.57;;
60060;SDS011;45933;51.336;12.612;2024-02-04T01:54:07;5.57;;;4.40;;
60060;SDS011;45933;51.336;12.612;2024-02-04T01:56:33;5.90;;;4.17;;
60060;SDS011;45933;51.336;12.612;2024-02-04T01:58:58;6.17;;;4.20;;
60060;SDS011;45933;51.336;12.612;2024-02-04T02:01:24;4.80;;;4.03;;
60060;SDS011;45933;51.336;12.612;2024-02-04T02:03:51;6.10;;;4.20;;
60060;SDS011;45933;51.336;12.612;2024-02-04T02:06:16;7.50;;;4.47;;
60060;SDS011;45933;51.336;12.612;2024-02-04T02:08:42;8.00;;;4.40;;
60060;SDS011;45933;51.336;12.612;2024-02-04T02:11:18;6.17;;;4.33;;
60060;SDS011;45933;51.336;12.612;2024-02-04T02:13:49;6.30;;;4.10;;
60060;SDS011;45933;51.336;12.612;2024-02-04T02:16:21;4.33;;;3.57;;
60060;SDS011;45933;51.336;12.612;2024-02-04T02:18:48;4.97;;;3.90;;
60060;SDS011;45933;51.336;12.612;2024-02-04T02:21:26;4.73;;;4.10;;
60060;SDS011;45933;51.336;12.612;2024-02-04T02:24:14;6.13;;;4.53;;
60060;SDS011;45933;51.336;12.612;2024-02-04T02:26:52;7.67;;;5.27;;
60060;SDS011;45933;51.336;12.612;2024-02-04T02:29:18;6.83;;;4.93;;
60060;SDS011;45933;51.336;12.612;2024-02-04T02:31:43;6.90;;;5.13;;
60060;SDS011;45933;51.336;12.612;2024-02-04T02:34:10;8.60;;;5.40;;
60060;SDS011;45933;51.336;12.612;2024-02-04T02:40:05;6.80;;;5.13;;
60060;SDS011;45933;51.336;12.612;2024-02-04T02:42:33;6.57;;;4.93;;
60060;SDS011;45933;51.336;12.612;2024-02-04T02:44:59;7.60;;;5.53;;
60060;SDS011;45933;51.336;12.612;2024-02-04T02:47:26;6.63;;;4.90;;
60060;SDS011;45933;51.336;12.612;2024-02-04T02:49:53;7.93;;;5.37;;
60060;SDS011;45933;51.336;12.612;2024-02-04T02:52:19;7.93;;;5.47;;
60060;SDS011;45933;51.336;12.612;2024-02-04T02:54:46;6.67;;;5.50;;
60060;SDS011;45933;51.336;12.612;2024-02-04T02:57:11;7.63;;;5.53;;
60060;SDS011;45933;51.336;12.612;2024-02-04T02:59:37;7.40;;;5.03;;
60060;SDS011;45933;51.336;12.612;2024-02-04T03:02:02;7.53;;;5.60;;
60060;SDS011;45933;51.336;12.612;2024-02-04T03:04:27;7.53;;;5.63;;
60060;SDS011;45933;51.336;12.612;2024-02-04T03:06:52;6.97;;;5.10;;
60060;SDS011;45933;51.336;12.612;2024-02-04T03:09:18;7.73;;;5.20;;
60060;SDS011;45933;51.336;12.612;2024-02-04T03:11:43;6.90;;;4.90;;
60060;SDS011;45933;51.336;12.612;2024-02-04T03:14:08;7.73;;;5.07;;
60060;SDS011;45933;51.336;12.612;2024-02-04T03:16:34;7.93;;;5.17;;
60060;SDS011;45933;51.336;12.612;2024-02-04T03:18:59;7.20;;;4.93;;
60060;SDS011;45933;51.336;12.612;2024-02-04T03:21:24;5.97;;;4.70;;
60060;SDS011;45933;51.336;12.612;2024-02-04T03:23:49;6.33;;;4.50;;
60060;SDS011;45933;51.336;12.612;2024-02-04T03:26:18;6.33;;;4.80;;
60060;SDS011;45933;51.336;12.612;2024-02-04T03:28:44;9.57;;;4.50;;
60060;SDS011;45933;51.336;12.612;2024-02-04T03:31:09;5.53;;;4.37;;
60060;SDS011;45933;51.336;12.612;2024-02-04T03:33:34;6.37;;;4.30;;
60060;SDS011;45933;51.336;12.612;2024-02-04T03:36:00;6.57;;;4.00;;
60060;SDS011;45933;51.336;12.612;2024-02-04T03:38:25;5.43;;;4.20;;
60060;SDS011;45933;51.336;12.612;2024-02-04T03:40:51;7.00;;;4.07;;
60060;SDS011;45933;51.336;12.612;2024-02-04T03:43:16;3.87;;;3.13;;
60060;SDS011;45933;51.336;12.612;2024-02-04T03:45:42;5.50;;;4.07;;
60060;SDS011;45933;51.336;12.612;2024-02-04T03:48:07;4.53;;;3.63;;
60060;SDS011;45933;51.336;12.612;2024-02-04T03:50:32;6.93;;;4.20;;
60060;SDS011;45933;51.336;12.612;2024-02-04T03:52:58;5.17;;;3.70;;
60060;SDS011;45933;51.336;12.612;2024-02-04T03:55:23;4.53;;;3.57;;
60060;SDS011;45933;51.336;12.612;2024-02-04T03:57:48;6.20;;;3.60;;
60060;SDS011;45933;51.336;12.612;2024-02-04T04:00:13;6.57;;;3.73;;
60060;SDS011;45933;51.336;12.612;2024-02-04T04:02:39;4.20;;;3.40;;
60060;SDS011;45933;51.336;12.612;2024-02-04T04:05:05;4.93;;;3.53;;
60060;SDS011;45933;51.336;12.612;2024-02-04T04:07:31;4.17;;;3.33;;
60060;SDS011;45933;51.336;12.612;2024-02-04T04:09:57;4.47;;;3.60;;
60060;SDS011;45933;51.336;12.612;2024-02-04T04:12:22;5.37;;;3.43;;
60060;SDS011;45933;51.336;12.612;2024-02-04T04:14:47;4.17;;;3.30;;
60060;SDS011;45933;51.336;12.612;2024-02-04T04:17:12;5.17;;;3.33;;
60060;SDS011;45933;51.336;12.612;2024-02-04T04:19:38;4.87;;;3.30;;
60060;SDS011;45933;51.336;12.612;2024-02-04T04:22:04;3.90;;;3.07;;
60060;SDS011;45933;51.336;12.612;2024-02-04T04:24:29;4.17;;;3.07;;
60060;SDS011;45933;51.336;12.612;2024-02-04T04:26:55;4.13;;;2.77;;
60060;SDS011;45933;51.336;12.612;2024-02-04T04:29:20;4.03;;;2.77;;
60060;SDS011;45933;51.336;12.612;2024-02-04T04:31:45;4.20;;;3.30;;
60060;SDS011;45933;51.336;12.612;2024-02-04T04:34:11;4.00;;;2.97;;
60060;SDS011;45933;51.336;12.612;2024-02-04T04:36:36;4.83;;;2.97;;
60060;SDS011;45933;51.336;12.612;2024-02-04T04:39:01;5.60;;;3.20;;
60060;SDS011;45933;51.336;12.612;2024-02-04T04:41:27;4.87;;;2.83;;
60060;SDS011;45933;51.336;12.612;2024-02-04T04:43:52;6.30;;;3.33;;
60060;SDS011;45933;51.336;12.612;2024-02-04T04:46:17;4.83;;;2.93;;
60060;SDS011;45933;51.336;12.612;2024-02-04T04:48:42;5.97;;;3.47;;
60060;SDS011;45933;51.336;12.612;2024-02-04T04:51:08;6.23;;;3.50;;
60060;SDS011;45933;51.336;12.612;2024-02-04T04:53:34;5.10;;;3.67;;
60060;SDS011;45933;51.336;12.612;2024-02-04T04:58:52;5.50;;;4.13;;
60060;SDS011;45933;51.336;12.612;2024-02-04T05:01:17;5.83;;;3.83;;
60060;SDS011;45933;51.336;12.612;2024-02-04T05:03:43;5.27;;;4.13;;
60060;SDS011;45933;51.336;12.612;2024-02-04T05:06:09;6.33;;;4.40;;
60060;SDS011;45933;51.336;12.612;2024-02-04T05:08:34;7.43;;;4.70;;
60060;SDS011;45933;51.336;12.612;2024-02-04T05:10:59;6.00;;;4.47;;
60060;SDS011;45933;51.336;12.612;2024-02-04T05:13:24;5.70;;;4.73;;
60060;SDS011;45933;51.336;12.612;2024-02-04T05:15:50;6.53;;;4.50;;
60060;SDS011;45933;51.336;12.612;2024-02-04T05:18:15;7.33;;;4.77;;
60060;SDS011;45933;51.336;12.612;2024-02-04T05:20:40;6.47;;;4.27;;
60060;SDS011;45933;51.336;12.612;2024-02-04T05:23:06;6.27;;;3.70;;
60060;SDS011;45933;51.336;12.612;2024-02-04T05:25:31;5.60;;;3.40;;
60060;SDS011;45933;51.336;12.612;2024-02-04T05:27:56;5.13;;;3.77;;
60060;SDS011;45933;51.336;12.612;2024-02-04T05:30:22;5.13;;;3.33;;
60060;SDS011;45933;51.336;12.612;2024-02-04T05:32:47;3.67;;;2.87;;
60060;SDS011;45933;51.336;12.612;2024-02-04T05:35:12;4.30;;;2.80;;
60060;SDS011;45933;51.336;12.612;2024-02-04T05:37:37;3.27;;;2.60;;
60060;SDS011;45933;51.336;12.612;2024-02-04T05:40:03;3.77;;;2.70;;
60060;SDS011;45933;51.336;12.612;2024-02-04T05:42:29;4.10;;;2.70;;
60060;SDS011;45933;51.336;12.612;2024-02-04T05:44:56;3.23;;;2.70;;
60060;SDS011;45933;51.336;12.612;2024-02-04T05:47:21;3.50;;;2.63;;
60060;SDS011;45933;51.336;12.612;2024-02-04T05:49:47;3.43;;;2.67;;
60060;SDS011;45933;51.336;12.612;2024-02-04T05:52:12;4.40;;;3.00;;
60060;SDS011;45933;51.336;12.612;2024-02-04T05:54:38;5.47;;;3.53;;
60060;SDS011;45933;51.336;12.612;2024-02-04T05:57:04;4.47;;;3.20;;
60060;SDS011;45933;51.336;12.612;2024-02-04T05:59:29;5.90;;;3.50;;
60060;SDS011;45933;51.336;12.612;2024-02-04T06:01:55;5.00;;;3.90;;
60060;SDS011;45933;51.336;12.612;2024-02-04T06:04:20;4.30;;;3.63;;
60060;SDS011;45933;51.336;12.612;2024-02-04T06:06:46;5.30;;;4.13;;
60060;SDS011;45933;51.336;12.612;2024-02-04T06:09:11;6.60;;;4.13;;
60060;SDS011;45933;51.336;12.612;2024-02-04T06:11:36;6.93;;;3.70;;
60060;SDS011;45933;51.336;12.612;2024-02-04T06:14:01;5.43;;;4.20;;
60060;SDS011;45933;51.336;12.612;2024-02-04T06:16:27;5.73;;;4.10;;
60060;SDS011;45933;51.336;12.612;2024-02-04T06:18:52;5.53;;;4.17;;
60060;SDS011;45933;51.336;12.612;2024-02-04T06:21:20;4.77;;;3.80;;
60060;SDS011;45933;51.336;12.612;2024-02-04T06:23:45;4.77;;;3.60;;
60060;SDS011;45933;51.336;12.612;2024-02-04T06:26:11;5.80;;;3.70;;
60060;SDS011;45933;51.336;12.612;2024-02-04T06:28:36;5.90;;;3.70;;
60060;SDS011;45933;51.336;12.612;2024-02-04T06:31:01;5.07;;;3.77;;
60060;SDS011;45933;51.336;12.612;2024-02-04T06:33:27;5.73;;;3.73;;
60060;SDS011;45933;51.336;12.612;2024-02-04T06:35:52;4.07;;;3.33;;
60060;SDS011;45933;51.336;12.612;2024-02-04T06:38:17;4.10;;;3.40;;
60060;SDS011;45933;51.336;12.612;2024-02-04T06:40:43;4.10;;;3.27;;
60060;SDS011;45933;51.336;12.612;2024-02-04T06:43:08;3.17;;;2.70;;
60060;SDS011;45933;51.336;12.612;2024-02-04T06:45:33;5.00;;;3.60;;
60060;SDS011;45933;51.336;12.612;2024-02-04T06:47:59;3.43;;;3.00;;
60060;SDS011;45933;51.336;12.612;2024-02-04T06:50:24;3.97;;;3.57;;
60060;SDS011;45933;51.336;12.612;2024-02-04T06:52:49;3.00;;;2.17;;
60060;SDS011;45933;51.336;12.612;2024-02-04T06:55:15;3.07;;;1.87;;
60060;SDS011;45933;51.336;12.612;2024-02-04T06:57:40;3.40;;;1.70;;
60060;SDS011;45933;51.336;12.612;2024-02-04T07:00:06;3.83;;;1.30;;
60060;SDS011;45933;51.336;12.612;2024-02-04T07:02:33;2.90;;;1.13;;
60060;SDS011;45933;51.336;12.612;2024-02-04T07:04:59;1.20;;;1.10;;
60060;SDS011;45933;51.336;12.612;2024-02-04T07:07:24;1.33;;;1.23;;
60060;SDS011;45933;51.336;12.612;2024-02-04T07:09:49;1.10;;;1.00;;
60060;SDS011;45933;51.336;12.612;2024-02-04T07:12:14;1.20;;;1.10;;
60060;SDS011;45933;51.336;12.612;2024-02-04T07:14:40;0.90;;;0.90;;
60060;SDS011;45933;51.336;12.612;2024-02-04T07:17:05;0.80;;;0.80;;
60060;SDS011;45933;51.336;12.612;2024-02-04T07:19:30;1.43;;;0.87;;
60060;SDS011;45933;51.336;12.612;2024-02-04T07:21:55;0.53;;;0.53;;
60060;SDS011;45933;51.336;12.612;2024-02-04T07:24:21;0.83;;;0.73;;
60060;SDS011;45933;51.336;12.612;2024-02-04T07:26:46;0.80;;;0.70;;
60060;SDS011;45933;51.336;12.612;2024-02-04T07:29:14;0.83;;;0.80;;
60060;SDS011;45933;51.336;12.612;2024-02-04T07:31:39;1.10;;;0.83;;
60060;SDS011;45933;51.336;12.612;2024-02-04T07:34:05;0.93;;;0.83;;
60060;SDS011;45933;51.336;12.612;2024-02-04T07:36:30;0.67;;;0.67;;
60060;SDS011;45933;51.336;12.612;2024-02-04T07:38:56;0.83;;;0.83;;
60060;SDS011;45933;51.336;12.612;2024-02-04T07:41:21;3.63;;;1.00;;
60060;SDS011;45933;51.336;12.612;2024-02-04T07:43:46;0.90;;;0.60;;
60060;SDS011;45933;51.336;12.612;2024-02-04T07:46:13;0.60;;;0.60;;
60060;SDS011;45933;51.336;12.612;2024-02-04T07:48:38;0.50;;;0.50;;
60060;SDS011;45933;51.336;12.612;2024-02-04T07:51:04;0.70;;;0.70;;
60060;SDS011;45933;51.336;12.612;2024-02-04T07:53:29;0.70;;;0.70;;
60060;SDS011;45933;51.336;12.612;2024-02-04T07:55:54;0.80;;;0.63;;
60060;SDS011;45933;51.336;12.612;2024-02-04T07:58:19;0.73;;;0.70;;
60060;SDS011;45933;51.336;12.612;2024-02-04T08:00:45;0.93;;;0.67;;
60060;SDS011;45933;51.336;12.612;2024-02-04T08:03:10;1.73;;;0.70;;
60060;SDS011;45933;51.336;12.612;2024-02-04T08:05:35;1.20;;;1.00;;
60060;SDS011;45933;51.336;12.612;2024-02-04T08:08:01;0.60;;;0.60;;
60060;SDS011;45933;51.336;12.612;2024-02-04T08:10:26;0.63;;;0.63;;
60060;SDS011;45933;51.336;12.612;2024-02-04T08:12:52;0.50;;;0.50;;
60060;SDS011;45933;51.336;12.612;2024-02-04T08:15:18;1.73;;;0.60;;
60060;SDS011;45933;51.336;12.612;2024-02-04T08:17:44;0.70;;;0.70;;
60060;SDS011;45933;51.336;12.612;2024-02-04T08:20:09;0.93;;;0.87;;
60060;SDS011;45933;51.336;12.612;2024-02-04T08:22:35;1.37;;;0.97;;
60060;SDS011;45933;51.336;12.612;2024-02-04T08:25:00;1.10;;;1.00;;
60060;SDS011;45933;51.336;12.612;2024-02-04T08:27:27;0.60;;;0.60;;
60060;SDS011;45933;51.336;12.612;2024-02-04T08:29:52;0.73;;;0.60;;
60060;SDS011;45933;51.336;12.612;2024-02-04T08:32:17;2.20;;;0.60;;
60060;SDS011;45933;51.336;12.612;2024-02-04T08:34:42;0.97;;;0.60;;
60060;SDS011;45933;51.336;12.612;2024-02-04T08:37:08;0.60;;;0.53;;
60060;SDS011;45933;51.336;12.612;2024-02-04T08:39:33;0.50;;;0.50;;
60060;SDS011;45933;51.336;12.612;2024-02-04T08:41:59;0.80;;;0.40;;
60060;SDS011;45933;51.336;12.612;2024-02-04T08:44:24;0.80;;;0.60;;
60060;SDS011;45933;51.336;12.612;2024-02-04T08:46:49;1.13;;;0.50;;
60060;SDS011;45933;51.336;12.612;2024-02-04T08:49:14;1.07;;;0.60;;
60060;SDS011;45933;51.336;12.612;2024-02-04T08:51:40;0.40;;;0.40;;
60060;SDS011;45933;51.336;12.612;2024-02-04T08:54:05;0.60;;;0.60;;
60060;SDS011;45933;51.336;12.612;2024-02-04T08:56:30;1.50;;;0.97;;
60060;SDS011;45933;51.336;12.612;2024-02-04T08:58:55;2.00;;;1.40;;
60060;SDS011;45933;51.336;12.612;2024-02-04T09:01:21;1.30;;;1.10;;
60060;SDS011;45933;51.336;12.612;2024-02-04T09:03:47;1.33;;;0.90;;
60060;SDS011;45933;51.336;12.612;2024-02-04T09:06:12;1.27;;;1.10;;
60060;SDS011;45933;51.336;12.612;2024-02-04T09:08:37;1.67;;;1.30;;
60060;SDS011;45933;51.336;12.612;2024-02-04T09:11:03;1.73;;;1.50;;
60060;SDS011;45933;51.336;12.612;2024-02-04T09:13:28;1.50;;;1.23;;
60060;SDS011;45933;51.336;12.612;2024-02-04T09:15:53;1.07;;;0.70;;
60060;SDS011;45933;51.336;12.612;2024-02-04T09:18:19;1.73;;;1.00;;
60060;SDS011;45933;51.336;12.612;2024-02-04T09:20:45;1.03;;;0.93;;
60060;SDS011;45933;51.336;12.612;2024-02-04T09:23:10;1.40;;;0.90;;
60060;SDS011;45933;51.336;12.612;2024-02-04T09:25:35;1.50;;;1.00;;
60060;SDS011;45933;51.336;12.612;2024-02-04T09:28:00;2.17;;;0.87;;
60060;SDS011;45933;51.336;12.612;2024-02-04T09:30:26;2.15;;;1.80;;
60060;SDS011;45933;51.336;12.612;2024-02-04T09:32:51;1.70;;;1.60;;
60060;SDS011;45933;51.336;12.612;2024-02-04T09:35:16;1.33;;;1.20;;
60060;SDS011;45933;51.336;12.612;2024-02-04T09:37:42;1.13;;;1.03;;
60060;SDS011;45933;51.336;12.612;2024-02-04T09:40:07;1.23;;;1.10;;
60060;SDS011;45933;51.336;12.612;2024-02-04T09:42:33;1.03;;;0.93;;
60060;SDS011;45933;51.336;12.612;2024-02-04T09:44:58;0.77;;;0.77;;
60060;SDS011;45933;51.336;12.612;2024-02-04T09:47:24;1.00;;;0.90;;
60060;SDS011;45933;51.336;12.612;2024-02-04T09:49:51;0.80;;;0.80;;
60060;SDS011;45933;51.336;12.612;2024-02-04T09:52:21;0.90;;;0.90;;
60060;SDS011;45933;51.336;12.612;2024-02-04T09:54:55;1.10;;;1.00;;
60060;SDS011;45933;51.336;12.612;2024-02-04T09:57:23;0.90;;;0.90;;
60060;SDS011;45933;51.336;12.612;2024-02-04T09:59:49;1.53;;;1.20;;
60060;SDS011;45933;51.336;12.612;2024-02-04T10:02:15;1.67;;;1.50;;
60060;SDS011;45933;51.336;12.612;2024-02-04T10:04:40;3.00;;;1.80;;
60060;SDS011;45933;51.336;12.612;2024-02-04T10:07:06;2.90;;;2.33;;
60060;SDS011;45933;51.336;12.612;2024-02-04T10:09:31;2.37;;;2.17;;
60060;SDS011;45933;51.336;12.612;2024-02-04T10:11:57;2.80;;;2.30;;
60060;SDS011;45933;51.336;12.612;2024-02-04T10:14:22;2.53;;;2.33;;
60060;SDS011;45933;51.336;12.612;2024-02-04T10:16:48;2.40;;;2.20;;
60060;SDS011;45933;51.336;12.612;2024-02-04T10:19:14;5.50;;;2.20;;
60060;SDS011;45933;51.336;12.612;2024-02-04T10:21:39;2.20;;;2.00;;
60060;SDS011;45933;51.336;12.612;2024-02-04T10:24:06;3.70;;;3.30;;
60060;SDS011;45933;51.336;12.612;2024-02-04T10:26:32;2.97;;;2.53;;
60060;SDS011;45933;51.336;12.612;2024-02-04T10:29:01;2.73;;;2.53;;
60060;SDS011;45933;51.336;12.612;2024-02-04T10:31:27;3.67;;;2.40;;
60060;SDS011;45933;51.336;12.612;2024-02-04T10:33:52;3.17;;;2.87;;
60060;SDS011;45933;51.336;12.612;2024-02-04T10:36:19;2.93;;;2.60;;
60060;SDS011;45933;51.336;12.612;2024-02-04T10:38:45;3.00;;;2.60;;
60060;SDS011;45933;51.336;12.612;2024-02-04T10:41:16;3.50;;;2.60;;
60060;SDS011;45933;51.336;12.612;2024-02-04T10:43:43;3.40;;;3.00;;
60060;SDS011;45933;51.336;12.612;2024-02-04T10:46:11;3.00;;;2.30;;
60060;SDS011;45933;51.336;12.612;2024-02-04T10:48:38;2.43;;;2.00;;
60060;SDS011;45933;51.336;12.612;2024-02-04T10:51:14;2.17;;;1.87;;
60060;SDS011;45933;51.336;12.612;2024-02-04T10:53:44;1.60;;;1.50;;
60060;SDS011;45933;51.336;12.612;2024-02-04T10:56:14;2.43;;;1.93;;
60060;SDS011;45933;51.336;12.612;2024-02-04T10:58:46;1.77;;;1.60;;
60060;SDS011;45933;51.336;12.612;2024-02-04T11:01:12;3.10;;;1.70;;
60060;SDS011;45933;51.336;12.612;2024-02-04T11:03:39;1.50;;;1.40;;
60060;SDS011;45933;51.336;12.612;2024-02-04T11:06:05;1.67;;;1.50;;
60060;SDS011;45933;51.336;12.612;2024-02-04T11:08:32;2.10;;;1.40;;
60060;SDS011;45933;51.336;12.612;2024-02-04T11:10:58;4.57;;;2.07;;
60060;SDS011;45933;51.336;12.612;2024-02-04T11:13:23;1.80;;;1.37;;
60060;SDS011;45933;51.336;12.612;2024-02-04T11:15:50;2.00;;;1.67;;
60060;SDS011;45933;51.336;12.612;2024-02-04T11:21:22;4.10;;;2.47;;
60060;SDS011;45933;51.336;12.612;2024-02-04T11:24:08;2.70;;;2.33;;
60060;SDS011;45933;51.336;12.612;2024-02-04T11:26:53;2.93;;;2.30;;
60060;SDS011;45933;51.336;12.612;2024-02-04T11:29:22;3.83;;;2.83;;
60060;SDS011;45933;51.336;12.612;2024-02-04T11:31:47;3.77;;;2.80;;
60060;SDS011;45933;51.336;12.612;2024-02-04T11:34:13;4.47;;;2.83;;
60060;SDS011;45933;51.336;12.612;2024-02-04T11:36:38;3.97;;;2.63;;
60060;SDS011;45933;51.336;12.612;2024-02-04T11:39:14;5.40;;;2.90;;
60060;SDS011;45933;51.336;12.612;2024-02-04T11:41:46;3.63;;;3.00;;
60060;SDS011;45933;51.336;12.612;2024-02-04T11:44:12;4.50;;;2.87;;
60060;SDS011;45933;51.336;12.612;2024-02-04T11:46:37;3.77;;;3.13;;
60060;SDS011;45933;51.336;12.612;2024-02-04T11:49:02;3.90;;;3.03;;
60060;SDS011;45933;51.336;12.612;2024-02-04T11:51:28;4.33;;;2.90;;
60060;SDS011;45933;51.336;12.612;2024-02-04T11:53:55;3.37;;;2.70;;
60060;SDS011;45933;51.336;12.612;2024-02-04T11:56:21;3.73;;;3.07;;
60060;SDS011;45933;51.336;12.612;2024-02-04T11:58:46;4.87;;;3.40;;
60060;SDS011;45933;51.336;12.612;2024-02-04T12:01:12;7.93;;;3.60;;
60060;SDS011;45933;51.336;12.612;2024-02-04T12:03:37;5.80;;;3.50;;
60060;SDS011;45933;51.336;12.612;2024-02-04T12:06:03;4.63;;;3.77;;
60060;SDS011;45933;51.336;12.612;2024-02-04T12:08:30;5.37;;;4.03;;
60060;SDS011;45933;51.336;12.612;2024-02-04T12:10:59;7.77;;;4.40;;
60060;SDS011;45933;51.336;12.612;2024-02-04T12:13:27;5.57;;;4.03;;
60060;SDS011;45933;51.336;12.612;2024-02-04T12:15:53;4.83;;;4.13;;
60060;SDS011;45933;51.336;12.612;2024-02-04T12:18:18;5.73;;;4.30;;
60060;SDS011;45933;51.336;12.612;2024-02-04T12:20:45;8.07;;;4.30;;
60060;SDS011;45933;51.336;12.612;2024-02-04T12:23:11;4.70;;;3.90;;
60060;SDS011;45933;51.336;12.612;2024-02-04T12:25:37;4.77;;;4.27;;
60060;SDS011;45933;51.336;12.612;2024-02-04T12:28:03;4.17;;;3.47;;
60060;SDS011;45933;51.336;12.612;2024-02-04T12:30:29;8.20;;;3.47;;
60060;SDS011;45933;51.336;12.612;2024-02-04T12:32:56;5.33;;;3.10;;
60060;SDS011;45933;51.336;12.612;2024-02-04T12:35:27;3.23;;;2.90;;
60060;SDS011;45933;51.336;12.612;2024-02-04T12:37:56;3.37;;;3.07;;
60060;SDS011;45933;51.336;12.612;2024-02-04T12:42:54;4.73;;;3.10;;
60060;SDS011;45933;51.336;12.612;2024-02-04T12:45:24;3.23;;;2.73;;
60060;SDS011;45933;51.336;12.612;2024-02-04T12:47:50;4.30;;;3.40;;
60060;SDS011;45933;51.336;12.612;2024-02-04T12:50:16;3.77;;;3.20;;
60060;SDS011;45933;51.336;12.612;2024-02-04T12:52:43;3.77;;;3.03;;
60060;SDS011;45933;51.336;12.612;2024-02-04T12:55:18;3.50;;;2.90;;
60060;SDS011;45933;51.336;12.612;2024-02-04T12:57:45;4.57;;;3.20;;
60060;SDS011;45933;51.336;12.612;2024-02-04T13:00:10;4.17;;;2.93;;
60060;SDS011;45933;51.336;12.612;2024-02-04T13:02:37;3.83;;;2.93;;
60060;SDS011;45933;51.336;12.612;2024-02-04T13:05:02;4.60;;;2.87;;
60060;SDS011;45933;51.336;12.612;2024-02-04T13:07:27;3.85;;;2.83;;
60060;SDS011;45933;51.336;12.612;2024-02-04T13:09:58;4.10;;;2.72;;
60060;SDS011;45933;51.336;12.612;2024-02-04T13:12:27;2.80;;;2.50;;
60060;SDS011;45933;51.336;12.612;2024-02-04T13:14:52;2.93;;;2.57;;
60060;SDS011;45933;51.336;12.612;2024-02-04T13:17:17;2.80;;;2.50;;
60060;SDS011;45933;51.336;12.612;2024-02-04T13:19:42;2.70;;;2.50;;
60060;SDS011;45933;51.336;12.612;2024-02-04T13:22:09;3.60;;;2.50;;
60060;SDS011;45933;51.336;12.612;2024-02-04T13:24:34;5.03;;;2.40;;
60060;SDS011;45933;51.336;12.612;2024-02-04T13:27:00;4.43;;;2.80;;
60060;SDS011;45933;51.336;12.612;2024-02-04T13:29:26;2.33;;;1.90;;
60060;SDS011;45933;51.336;12.612;2024-02-04T13:31:51;2.47;;;1.83;;
60060;SDS011;45933;51.336;12.612;2024-02-04T13:34:17;2.90;;;2.00;;
60060;SDS011;45933;51.336;12.612;2024-02-04T13:36:42;3.30;;;1.90;;
60060;SDS011;45933;51.336;12.612;2024-02-04T13:39:08;2.10;;;1.83;;
60060;SDS011;45933;51.336;12.612;2024-02-04T13:41:34;3.20;;;1.70;;
60060;SDS011;45933;51.336;12.612;2024-02-04T13:44:00;2.57;;;1.33;;
60060;SDS011;45933;51.336;12.612;2024-02-04T13:46:26;1.73;;;1.60;;
60060;SDS011;45933;51.336;12.612;2024-02-04T13:48:51;3.10;;;1.87;;
60060;SDS011;45933;51.336;12.612;2024-02-04T13:51:16;2.20;;;1.50;;
60060;SDS011;45933;51.336;12.612;2024-02-04T13:53:42;4.77;;;1.80;;
60060;SDS011;45933;51.336;12.612;2024-02-04T13:56:07;2.40;;;1.40;;
60060;SDS011;45933;51.336;12.612;2024-02-04T13:58:32;1.80;;;1.60;;
60060;SDS011;45933;51.336;12.612;2024-02-04T14:00:57;2.30;;;1.23;;
60060;SDS011;45933;51.336;12.612;2024-02-04T14:03:24;2.13;;;1.33;;
60060;SDS011;45933;51.336;12.612;2024-02-04T14:05:49;4.07;;;1.58;;
60060;SDS011;45933;51.336;12.612;2024-02-04T14:08:15;2.40;;;1.60;;
60060;SDS011;45933;51.336;12.612;2024-02-04T14:10:40;2.77;;;1.43;;
60060;SDS011;45933;51.336;12.612;2024-02-04T14:13:05;2.73;;;1.40;;
60060;SDS011;45933;51.336;12.612;2024-02-04T14:15:31;2.97;;;1.27;;
60060;SDS011;45933;51.336;12.612;2024-02-04T14:17:56;2.70;;;1.30;;
60060;SDS011;45933;51.336;12.612;2024-02-04T14:20:22;2.17;;;1.47;;
60060;SDS011;45933;51.336;12.612;2024-02-04T14:22:48;3.03;;;1.27;;
60060;SDS011;45933;51.336;12.612;2024-02-04T14:25:14;2.13;;;1.50;;
60060;SDS011;45933;51.336;12.612;2024-02-04T14:27:39;2.97;;;1.57;;
60060;SDS011;45933;51.336;12.612;2024-02-04T14:30:05;5.53;;;1.70;;
60060;SDS011;45933;51.336;12.612;2024-02-04T14:32:31;3.97;;;1.50;;
60060;SDS011;45933;51.336;12.612;2024-02-04T14:34:57;4.23;;;1.73;;
60060;SDS011;45933;51.336;12.612;2024-02-04T14:37:22;3.03;;;1.60;;